createdAt,value
2022-12-19T15:57:59.523Z,3.72
2022-12-19T16:00:33.103Z,3.31
2022-12-19T16:05:47.304Z,2.67
2022-12-19T16:08:16.475Z,2.28
2022-12-19T16:10:45.524Z,2.36
2022-12-19T16:13:16.876Z,2.46
2022-12-19T16:15:44.007Z,2.30
2022-12-19T16:18:13.906Z,2.11
2022-12-19T16:20:41.495Z,2.05
2022-12-19T16:23:11.013Z,1.87
2022-12-19T16:25:49.324Z,1.57
2022-12-19T16:28:25.419Z,1.76
2022-12-19T16:30:53.135Z,1.72
2022-12-19T16:33:34.002Z,1.72
2022-12-19T16:36:05.702Z,1.48
2022-12-19T16:38:33.862Z,1.37
2022-12-19T16:41:01.760Z,1.21
2022-12-19T16:43:46.799Z,1.24
2022-12-19T16:46:20.331Z,0.95
2022-12-19T16:48:47.841Z,1.10
2022-12-19T16:51:24.734Z,1.31
2022-12-19T16:54:01.800Z,1.36
2022-12-19T16:56:33.235Z,1.24
2022-12-19T16:59:03.900Z,0.84
2022-12-19T17:01:33.159Z,1.03
2022-12-19T17:04:00.374Z,0.84
2022-12-19T17:06:29.755Z,0.87
2022-12-19T17:08:56.619Z,0.70
2022-12-19T17:11:25.752Z,0.65
2022-12-19T17:13:53.325Z,1.08
2022-12-19T17:16:20.109Z,0.61
2022-12-19T17:18:47.272Z,1.05
2022-12-19T17:21:17.303Z,0.82
2022-12-19T17:23:44.468Z,0.93
2022-12-19T17:26:15.885Z,0.68
2022-12-19T17:28:48.189Z,0.47
2022-12-19T17:31:27.346Z,0.89
2022-12-19T17:33:58.079Z,0.33
2022-12-19T17:36:36.592Z,0.37
2022-12-19T17:39:34.498Z,0.78
2022-12-19T17:42:07.020Z,0.58
2022-12-19T17:44:34.477Z,0.44
2022-12-19T17:47:01.114Z,0.16
2022-12-19T17:49:29.900Z,0.16
2022-12-19T17:51:57.474Z,0.55
2022-12-19T17:54:24.563Z,0.11
2022-12-19T17:56:51.714Z,0.45
2022-12-19T17:59:19.359Z,0.09
2022-12-19T18:01:47.705Z,0.07
2022-12-19T18:04:17.494Z,0.42
2022-12-19T18:06:45.524Z,0.35
2022-12-19T18:09:23.455Z,-0.05
2022-12-19T18:11:54.386Z,0.05
2022-12-19T18:14:26.347Z,-0.03
2022-12-19T18:17:26.501Z,-0.08
2022-12-19T18:19:47.658Z,0.00
2022-12-19T18:22:15.172Z,-0.17
2022-12-19T18:24:45.129Z,-0.12
2022-12-19T18:27:12.098Z,-0.27
2022-12-19T18:29:39.137Z,-0.12
2022-12-19T18:32:07.990Z,0.09
2022-12-19T18:34:40.593Z,-0.28
2022-12-19T18:37:16.039Z,0.01
2022-12-19T18:39:43.113Z,-0.02
2022-12-19T18:42:19.155Z,-0.31
2022-12-19T18:44:45.936Z,-0.34
2022-12-19T18:47:25.779Z,-0.26
2022-12-19T18:49:52.549Z,-0.19
2022-12-19T18:52:19.387Z,-0.12
2022-12-19T18:54:46.183Z,-0.49
2022-12-19T18:57:14.536Z,-0.46
2022-12-19T18:59:41.184Z,-0.50
2022-12-19T19:02:25.572Z,-0.41
2022-12-19T19:04:55.670Z,-0.38
2022-12-19T19:07:23.691Z,-0.33
2022-12-19T19:09:50.695Z,-0.35
2022-12-19T19:12:48.546Z,-0.66
2022-12-19T19:15:15.718Z,-0.35
2022-12-19T19:17:42.608Z,-0.79
2022-12-19T19:20:09.896Z,-0.64
2022-12-19T19:22:36.772Z,-0.46
2022-12-19T19:25:04.245Z,-0.59
2022-12-19T19:27:30.979Z,-0.45
2022-12-19T19:29:58.680Z,-0.50
2022-12-19T19:32:25.819Z,-0.59
2022-12-19T19:34:53.290Z,-0.73
2022-12-19T19:37:20.988Z,-0.86
2022-12-19T19:39:47.905Z,-0.79
2022-12-19T19:42:14.775Z,-0.63
2022-12-19T19:44:41.488Z,-0.59
2022-12-19T19:47:08.338Z,-0.59
2022-12-19T19:49:35.335Z,-0.63
2022-12-19T19:52:03.201Z,-0.72
2022-12-19T19:54:31.128Z,-0.59
2022-12-19T19:56:57.721Z,-0.57
2022-12-19T19:59:24.653Z,-0.92
2022-12-19T20:01:54.357Z,-0.88
2022-12-19T20:04:21.316Z,-0.78
2022-12-19T20:06:48.691Z,-0.95
2022-12-19T20:09:15.425Z,-0.76
2022-12-19T20:11:42.055Z,-0.65
2022-12-19T20:14:09.081Z,-0.89
2022-12-19T20:16:35.773Z,-1.03
2022-12-19T20:19:02.658Z,-0.89
2022-12-19T20:21:30.777Z,-0.65
2022-12-19T20:23:57.509Z,-0.93
2022-12-19T20:26:24.100Z,-0.77
2022-12-19T20:28:51.440Z,-0.62
2022-12-19T20:31:19.928Z,-0.60
2022-12-19T20:33:48.290Z,-0.82
2022-12-19T20:36:15.416Z,-0.69
2022-12-19T20:38:42.893Z,-0.63
2022-12-19T20:41:10.321Z,-0.97
2022-12-19T20:43:38.526Z,-0.67
2022-12-19T20:46:13.370Z,-0.62
2022-12-19T20:48:40.782Z,-0.70
2022-12-19T20:51:07.925Z,-0.89
2022-12-19T20:53:35.464Z,-0.91
2022-12-19T20:56:03.600Z,-0.66
2022-12-19T20:58:32.089Z,-0.96
2022-12-19T21:01:06.312Z,-0.66
2022-12-19T21:03:33.684Z,-0.90
2022-12-19T21:06:00.741Z,-0.76
2022-12-19T21:08:28.382Z,-0.86
2022-12-19T21:10:55.193Z,-0.95
2022-12-19T21:13:24.741Z,-1.12
2022-12-19T21:15:56.248Z,-0.64
2022-12-19T21:18:25.500Z,-0.75
2022-12-19T21:20:54.400Z,-0.85
2022-12-19T21:23:22.619Z,-0.67
2022-12-19T21:25:52.324Z,-0.95
2022-12-19T21:28:19.725Z,-0.91
2022-12-19T21:30:46.561Z,-0.64
2022-12-19T21:33:13.471Z,-0.66
2022-12-19T21:35:40.480Z,-0.97
2022-12-19T21:38:07.152Z,-0.82
2022-12-19T21:40:36.493Z,-0.57
2022-12-19T21:43:09.781Z,-0.72
2022-12-19T21:45:38.503Z,-0.70
2022-12-19T21:48:05.398Z,-0.67
2022-12-19T21:50:33.533Z,-0.61
2022-12-19T21:53:01.163Z,-0.70
2022-12-19T21:55:28.009Z,-0.85
2022-12-19T21:57:54.697Z,-0.65
2022-12-19T22:00:21.746Z,-0.73
2022-12-19T22:03:12.091Z,-0.75
2022-12-19T22:05:36.168Z,-0.83
2022-12-19T22:08:05.842Z,-0.90
2022-12-19T22:10:32.729Z,-1.09
2022-12-19T22:13:06.454Z,-0.98
2022-12-19T22:15:35.617Z,-0.94
2022-12-19T22:18:02.307Z,-0.89
2022-12-19T22:20:29.191Z,-0.84
2022-12-19T22:22:55.837Z,-1.10
2022-12-19T22:25:22.703Z,-1.14
2022-12-19T22:27:51.609Z,-1.18
2022-12-19T22:30:21.582Z,-1.43
2022-12-19T22:32:48.604Z,-1.29
2022-12-19T22:35:15.308Z,-1.29
2022-12-19T22:37:44.232Z,-1.42
2022-12-19T22:40:13.245Z,-1.31
2022-12-19T22:42:42.892Z,-1.36
2022-12-19T22:45:16.349Z,-1.02
2022-12-19T22:47:43.289Z,-1.46
2022-12-19T22:50:13.126Z,-1.20
2022-12-19T22:52:39.977Z,-1.07
2022-12-19T22:55:07.197Z,-1.33
2022-12-19T22:57:34.787Z,-1.06
2022-12-19T23:00:01.538Z,-1.03
2022-12-19T23:02:28.407Z,-1.20
2022-12-19T23:04:55.257Z,-1.03
2022-12-19T23:07:22.061Z,-1.34
2022-12-19T23:09:48.765Z,-1.05
2022-12-19T23:12:18.305Z,-1.24
2022-12-19T23:14:45.248Z,-1.14
2022-12-19T23:17:12.196Z,-1.25
2022-12-19T23:19:39.563Z,-1.47
2022-12-19T23:22:09.289Z,-1.33
2022-12-19T23:24:36.987Z,-1.01
2022-12-19T23:27:04.717Z,-1.18
2022-12-19T23:29:32.049Z,-1.29
2022-12-19T23:31:59.056Z,-1.38
2022-12-19T23:34:26.235Z,-1.43
2022-12-19T23:39:40.040Z,-1.26
2022-12-19T23:42:06.743Z,-1.40
2022-12-19T23:44:33.805Z,-1.13
2022-12-19T23:47:03.620Z,-1.32
2022-12-19T23:49:32.063Z,-1.30
2022-12-19T23:51:59.301Z,-1.50
2022-12-19T23:54:26.093Z,-1.41
2022-12-19T23:56:53.423Z,-1.37
2022-12-19T23:59:20.318Z,-1.51
